• Join FlightAware (Why Join?)
  • Login
  • US Flag 
10:37AM EDT


 

Airport Tracker/Info


-or-


 

Live Flight TrackerFlight Track Log ✈ QXE2633 ✈ 17-Aug-2013 ✈ KPDX - KSMF

Flight Track Log - Related Links

Times and Time Zones

All times are in EDT time to prevent confusion due to time zone crossing. See the QXE2633 flight status page for this flight to view local times or setup timezone preferences in your user account.

Time Position Orientation Groundspeed Altitude Reporting Facility
EDT Latitude Longitude Course Direction KTS MPH feet Rate Location/Type
05:41PM 45.0385 -122.5079 173° South  Level Estimated
05:42PM 44.9599 -122.4953 174° South  Level Estimated
05:43PM 44.8854 -122.4835 174° South  Level Estimated
05:44PM 44.8109 -122.4716 174° South  Level Estimated
05:45PM 44.7365 -122.4598 174° South  Level Estimated
05:46PM 44.6620 -122.4480 174° South  Level Estimated
05:47PM 44.5876 -122.4363 174° South  Level Estimated
05:48PM 44.5131 -122.4246 174° South  Level Estimated
05:49PM 44.4386 -122.4129 174° South  Level Estimated
05:50PM 44.3642 -122.4012 174° South  Level Estimated
05:51PM 44.2897 -122.3896 174° South  Level Estimated
05:52PM 44.2152 -122.3780 174° South  Level Estimated
05:53PM 44.1407 -122.3664 174° South  Level Estimated
05:54PM 44.0663 -122.3549 174° South  Level Estimated
05:55PM 43.9918 -122.3433 174° South  Level Estimated
05:56PM 43.9173 -122.3318 174° South  Level Estimated
05:57PM 43.8429 -122.3204 174° South  Level Estimated
05:58PM 43.7684 -122.3090 174° South  Level Estimated
05:59PM 43.6939 -122.2976 174° South  Level Estimated
06:00PM 43.6194 -122.2862 174° South  Level Estimated
06:01PM 43.5449 -122.2748 174° South  Level Estimated
06:02PM 43.4705 -122.2635 174° South  Level Estimated
06:03PM 43.3960 -122.2522 174° South  Level Estimated
06:04PM 43.3215 -122.2410 174° South  Level Estimated
06:05PM 43.2470 -122.2297 174° South  Level Estimated
06:06PM 43.1725 -122.2185 174° South  Level Estimated
06:07PM 43.0980 -122.2074 174° South  Level Estimated
06:08PM 43.0236 -122.1962 174° South  Level Estimated
06:09PM 42.9491 -122.1851 174° South  Level Estimated
06:10PM 42.8746 -122.1740 174° South  Level Estimated
06:11PM 42.8001 -122.1629 174° South  Level Estimated
06:12PM 42.7256 -122.1519 174° South  Level Estimated
06:13PM 42.6511 -122.1408 174° South  Level Estimated
06:14PM 42.5766 -122.1299 174° South  Level Estimated
06:15PM 42.5021 -122.1189 174° South  Level Estimated
06:16PM 42.4276 -122.1079 174° South  Level Estimated
06:17PM 42.3531 -122.0970 174° South  Level Estimated
06:18PM 42.2786 -122.0862 174° South  Level Estimated
06:19PM 42.2030 -122.0751 174° South  Level Estimated
06:20PM 42.1274 -122.0641 174° South  Level Estimated
06:21PM 42.0518 -122.0532 174° South  Level Estimated
06:22PM 41.9762 -122.0422 174° South  Level Estimated
06:23PM 41.9006 -122.0313 174° South  Level Estimated
06:24PM 41.8250 -122.0204 174° South  Level Estimated
06:25PM 41.7494 -122.0095 174° South  Level Estimated
06:26PM 41.6738 -121.9987 174° South  Level Estimated
06:27PM 41.5982 -121.9879 174° South  Level Estimated
06:28PM 41.5226 -121.9771 174° South  Level Estimated
06:29PM 41.4470 -121.9663 174° South  Level Estimated
06:30PM 41.3714 -121.9556 174° South  Level Estimated
06:31PM 41.2958 -121.9449 174° South  Level Estimated
06:32PM 41.2202 -121.9342 174° South  Level Estimated
06:33PM 41.1446 -121.9235 174° South  Level Estimated
06:34PM 41.0690 -121.9129 174° South  Level Estimated
06:35PM 40.9934 -121.9023 174° South  Level Estimated
06:36PM 40.9182 -121.8918 174° South  Level Estimated
06:37PM 40.8422 -121.8811 174° South  Level Estimated
06:38PM 40.7661 -121.8705 174° South  Level Estimated
06:39PM 40.6901 -121.8599 174° South  Level Estimated
06:40PM 40.6141 -121.8494 174° South  Level Estimated
06:41PM 40.5380 -121.8389 174° South  Level Estimated
06:42PM 40.4619 -121.8284 174° South  Level Estimated
06:43PM 40.3859 -121.8179 174° South  Level Estimated
06:44PM 40.3098 -121.8074 174° South  Level Estimated
06:45PM 40.2338 -121.7970 174° South  Level Estimated
06:46PM 40.1577 -121.7866 174° South  Level Estimated
06:47PM 40.0817 -121.7762 174° South  Level Estimated
06:48PM 40.0078 -121.7524 166° South  Level FlightAware Approximate
06:49PM 39.9339 -121.7286 166° South  Level FlightAware Approximate
06:50PM 39.8592 -121.7047 166° South  Level FlightAware Approximate
06:51PM 39.7845 -121.6808 166° South  Level FlightAware Approximate
06:52PM 39.7098 -121.6569 166° South  Level FlightAware Approximate
06:53PM 39.6351 -121.6331 166° South  Level FlightAware Approximate
06:54PM 39.5524 -121.6167 180° South  Level FlightAware Approximate
06:55PM 39.4755 -121.6159 176° South  Level FlightAware Approximate
06:56PM 39.3988 -121.6082 176° South  Level FlightAware Approximate
06:57PM 39.3221 -121.6005 176° South  Level FlightAware Approximate
06:58PM 39.2452 -121.6000 180° South  Level FlightAware Approximate
06:59PM 39.1682 -121.6000 180° South  Level FlightAware Approximate
07:00PM 39.0914 -121.5988 174° South  Level FlightAware Approximate
07:01PM 39.0149 -121.5878 174° South  Level FlightAware Approximate
07:02PM 38.9382 -121.5833 180° South  Level FlightAware Approximate
07:03PM 38.8612 -121.5833 180° South  Level FlightAware Approximate
07:04PM 38.7843 -121.5833 180° South  Level FlightAware Approximate
07:05PM 38.7074 -121.5833 180° South  Level FlightAware Approximate
07:06PM 38.6954 -121.5908 180° South  Level Estimated
07:07PM 38.6954 -121.5908 180° South  Level Estimated
07:08PM 38.6954 -121.5908 80° East  Level Estimated
07:09PM 38.6954 -121.5908 80° East  Level Estimated
07:10PM 38.6954 -121.5908 80° East  Level Estimated
07:11PM 38.6954 -121.5908 80° East  Level Estimated
07:12PM 38.6954 -121.5908 80° East  Level Estimated
07:13PM 38.6954 -121.5908 80° East  Level Estimated
07:14PM 38.6954 -121.5908 80° East  Level Estimated
07:15PM 38.6954 -121.5908 80° East  Level Estimated
07:16PM 38.6954 -121.5908 80° East  Level Estimated